Time;durP1;ratioP1;P1;durP2;ratioP2;P2;SDS_P1;SDS_P2;PMS_P1;PMS_P2;Temp;Humidity;BMP_temperature;BMP_pressure;BME280_temperature;BME280_humidity;BME280_pressure;Samples;Min_cycle;Max_cycle;Signal;HPM_P1;HPM_P2
2023/07/22 00:05:32;;;;;;;6.55;5.80;;;;;;;15.86;48.05;100357.22;20553815;28;20222;-79
2023/07/22 00:15:34;;;;;;;7.40;6.05;;;;;;;15.80;48.58;100353.84;20537448;28;20202;-79
2023/07/22 00:25:37;;;;;;;9.20;6.30;;;;;;;16.03;46.48;100337.84;20536895;28;20222;-78
2023/07/22 00:35:40;;;;;;;9.60;6.28;;;;;;;15.52;48.24;100342.50;20546666;28;20226;-79
2023/07/22 00:45:42;;;;;;;11.50;6.07;;;;;;;15.67;47.81;100332.38;20561207;28;20219;-79
2023/07/22 00:55:45;;;;;;;8.77;6.13;;;;;;;15.73;46.73;100331.75;20509399;28;20230;-79
2023/07/22 01:05:51;;;;;;;8.10;6.20;;;;;;;15.60;47.34;100318.81;20519928;28;20218;-80
2023/07/22 01:15:54;;;;;;;7.45;6.60;;;;;;;15.97;46.49;100308.09;20521946;28;20250;-80
2023/07/22 01:25:57;;;;;;;9.60;6.25;;;;;;;15.67;46.88;100293.50;20557001;28;20522;-80
2023/07/22 01:36:00;;;;;;;7.97;5.93;;;;;;;15.24;47.71;100305.66;20548576;28;20269;-80
2023/07/22 01:46:03;;;;;;;8.35;6.18;;;;;;;15.49;47.49;100302.69;20518019;28;20624;-80
2023/07/22 01:56:06;;;;;;;7.82;6.20;;;;;;;15.41;47.87;100304.53;20529146;28;20262;-80
2023/07/22 02:06:08;;;;;;;8.33;6.30;;;;;;;15.51;48.00;100298.31;20528458;28;20223;-79
2023/07/22 02:16:11;;;;;;;10.47;6.07;;;;;;;15.63;47.23;100291.75;20553812;28;20187;-79
2023/07/22 02:26:15;;;;;;;6.83;6.00;;;;;;;15.45;47.65;100286.44;20531634;28;20298;-79
2023/07/22 02:36:17;;;;;;;7.90;5.87;;;;;;;15.34;47.73;100275.97;20564051;28;20253;-79
2023/07/22 02:46:20;;;;;;;8.73;5.97;;;;;;;15.25;48.35;100292.31;20515051;28;20723;-79
2023/07/22 02:56:23;;;;;;;7.40;6.40;;;;;;;15.72;47.29;100290.38;20515779;28;20231;-79
2023/07/22 03:06:28;;;;;;;8.75;6.13;;;;;;;15.00;48.62;100292.44;20520577;28;20226;-78
2023/07/22 03:16:31;;;;;;;7.37;5.70;;;;;;;15.25;48.03;100298.00;20556362;28;20198;-78
2023/07/22 03:26:34;;;;;;;7.13;6.07;;;;;;;14.99;49.02;100299.28;20556425;28;20246;-80
2023/07/22 03:36:37;;;;;;;8.93;6.50;;;;;;;15.53;46.85;100298.78;20556081;28;20228;-79
2023/07/22 03:46:39;;;;;;;8.90;6.55;;;;;;;14.99;48.13;100306.94;20553163;28;20299;-80
2023/07/22 03:56:42;;;;;;;9.32;6.50;;;;;;;15.63;46.76;100301.09;20540028;28;20300;-79
2023/07/22 04:06:47;;;;;;;9.68;7.70;;;;;;;15.08;48.14;100305.59;20551119;28;20254;-79
2023/07/22 04:16:49;;;;;;;10.93;6.87;;;;;;;15.87;45.96;100299.28;20515477;28;20202;-81
2023/07/22 04:26:52;;;;;;;8.32;6.00;;;;;;;15.67;46.10;100309.69;20538840;28;20230;-81
2023/07/22 04:36:54;;;;;;;6.50;5.67;;;;;;;15.17;47.76;100313.16;20550673;28;20245;-81
2023/07/22 04:46:58;;;;;;;11.07;5.97;;;;;;;15.94;45.62;100311.66;20557409;28;20582;-83
2023/07/22 04:57:01;;;;;;;9.73;5.80;;;;;;;15.46;48.55;100310.75;20501118;28;20274;-81
2023/07/22 05:07:04;;;;;;;7.40;5.23;;;;;;;15.70;47.02;100321.16;20481011;28;20566;-80
2023/07/22 05:17:06;;;;;;;8.43;5.65;;;;;;;15.83;46.26;100318.25;20498808;28;20195;-82
2023/07/22 05:27:09;;;;;;;6.33;5.13;;;;;;;16.22;44.68;100308.72;20538779;28;20258;-81
2023/07/22 05:37:11;;;;;;;6.82;4.82;;;;;;;16.11;44.70;100316.13;20529089;28;20265;-84
2023/07/22 05:47:14;;;;;;;7.32;4.63;;;;;;;16.23;44.73;100318.91;20522905;28;20226;-82
2023/07/22 05:57:20;;;;;;;8.35;4.78;;;;;;;16.39;44.32;100319.69;20532985;28;20575;-82
2023/07/22 06:07:23;;;;;;;4.93;4.07;;;;;;;16.45;44.04;100317.41;20527566;28;20222;-82
2023/07/22 06:17:25;;;;;;;6.15;4.15;;;;;;;16.77;43.30;100318.16;20531850;28;20221;-83
2023/07/22 06:27:28;;;;;;;6.00;4.63;;;;;;;16.86;43.02;100327.31;20528757;28;20584;-82
2023/07/22 06:37:31;;;;;;;7.83;4.80;;;;;;;16.40;44.95;100320.50;20548213;28;20264;-80
2023/07/22 06:47:34;;;;;;;6.90;4.90;;;;;;;16.80;43.09;100323.09;20554662;28;20281;-84
2023/07/22 06:57:37;;;;;;;8.23;4.40;;;;;;;16.28;44.34;100332.81;20638907;28;20546;-83
2023/07/22 07:07:41;;;;;;;8.77;4.72;;;;;;;17.15;43.62;100314.50;20578847;28;20288;-82
2023/07/22 07:17:44;;;;;;;7.93;5.50;;;;;;;17.66;41.23;100315.19;20618343;28;20202;-79
2023/07/22 07:27:46;;;;;;;9.67;4.90;;;;;;;17.01;43.06;100309.38;20609148;28;20221;-79
2023/07/22 07:37:49;;;;;;;9.43;5.53;;;;;;;17.84;40.94;100310.63;20611782;28;20202;-81
2023/07/22 07:47:51;;;;;;;5.47;4.82;;;;;;;17.99;41.49;100316.63;20605417;28;20253;-80
2023/07/22 07:57:54;;;;;;;6.43;4.82;;;;;;;18.57;40.24;100320.03;20620435;28;20206;-80
2023/07/22 08:07:56;;;;;;;10.75;6.15;;;;;;;17.76;40.51;100319.44;20590310;28;20507;-81
2023/07/22 08:17:59;;;;;;;7.75;5.68;;;;;;;18.53;39.09;100325.66;20612804;28;20202;-81
2023/07/22 08:28:02;;;;;;;7.10;5.30;;;;;;;18.68;38.22;100326.75;20610975;28;20225;-79
2023/07/22 08:38:05;;;;;;;6.93;5.47;;;;;;;18.80;37.23;100322.84;20603098;28;20197;-81
2023/07/22 08:48:12;;;;;;;6.78;5.30;;;;;;;19.41;37.38;100318.75;20610319;28;20642;-80
2023/07/22 08:58:15;;;;;;;8.15;5.75;;;;;;;19.70;36.65;100309.31;20614364;28;20194;-81
2023/07/22 09:08:17;;;;;;;8.32;5.00;;;;;;;20.19;34.93;100303.28;20587210;28;20352;-81
2023/07/22 09:18:20;;;;;;;7.55;4.88;;;;;;;19.44;36.22;100315.13;20619949;28;20208;-80
2023/07/22 09:28:23;;;;;;;14.05;5.82;;;;;;;18.67;37.42;100322.25;20599563;28;20221;-80
2023/07/22 09:38:26;;;;;;;5.60;4.32;;;;;;;20.11;34.70;100310.16;20601073;28;20652;-81
2023/07/22 09:48:28;;;;;;;10.68;5.55;;;;;;;19.52;36.21;100323.38;20614845;28;20226;-82
2023/07/22 09:58:32;;;;;;;5.53;4.07;;;;;;;19.98;34.87;100311.66;20622399;28;20587;-81
2023/07/22 10:08:36;;;;;;;6.07;4.82;;;;;;;19.87;35.69;100308.69;20620670;28;20229;-80
2023/07/22 10:18:43;;;;;;;4.57;3.92;;;;;;;20.79;33.86;100294.31;20618756;28;20260;-82
2023/07/22 10:28:47;;;;;;;4.07;3.40;;;;;;;19.86;34.03;100307.03;20614921;28;20287;-80
2023/07/22 10:38:57;;;;;;;5.93;3.95;;;;;;;19.88;34.55;100293.16;20613977;28;20276;-81
2023/07/22 10:49:11;;;;;;;11.95;3.92;;;;;;;20.51;32.89;100286.38;20612346;28;20296;-80
2023/07/22 10:59:14;;;;;;;3.63;3.25;;;;;;;19.80;35.03;100294.31;20600109;28;20201;-80
2023/07/22 11:09:37;;;;;;;4.63;2.83;;;;;;;21.13;33.04;100271.19;20620236;28;20221;-80
2023/07/22 11:19:40;;;;;;;4.00;3.03;;;;;;;21.58;31.82;100244.75;20593897;28;20206;-80
2023/07/22 11:29:43;;;;;;;3.60;2.75;;;;;;;21.16;32.15;100236.06;20596059;28;20277;-80
2023/07/22 11:39:46;;;;;;;4.22;2.50;;;;;;;21.04;31.47;100240.09;20597990;28;20599;-81
2023/07/22 11:49:48;;;;;;;3.72;2.45;;;;;;;21.66;30.80;100219.84;20626452;28;20225;-80
2023/07/22 11:59:51;;;;;;;2.47;1.98;;;;;;;20.83;31.36;100234.28;20599778;28;20194;-79
2023/07/22 12:09:56;;;;;;;2.35;1.50;;;;;;;21.66;30.38;100211.25;20620789;28;20206;-80
2023/07/22 12:19:58;;;;;;;2.78;1.77;;;;;;;21.15;31.19;100211.53;20604885;28;20194;-79
2023/07/22 12:30:02;;;;;;;1.80;1.70;;;;;;;22.05;30.95;100194.91;20607901;28;20284;-79
2023/07/22 12:40:08;;;;;;;2.78;2.05;;;;;;;22.23;30.43;100191.97;20592418;28;20210;-79
2023/07/22 12:50:13;;;;;;;2.05;1.50;;;;;;;22.61;30.70;100193.13;20581798;28;20317;-79
2023/07/22 13:00:16;;;;;;;2.45;1.00;;;;;;;22.61;28.38;100173.06;20609735;28;20209;-80
2023/07/22 13:10:20;;;;;;;6.55;1.33;;;;;;;22.25;27.67;100174.38;20580542;28;20595;-80
2023/07/22 13:20:22;;;;;;;1.77;1.17;;;;;;;22.81;26.69;100165.63;20603158;28;20203;-78
2023/07/22 13:30:25;;;;;;;3.72;2.05;;;;;;;22.50;28.16;100155.09;20625676;28;20217;-80
2023/07/22 13:40:28;;;;;;;2.22;1.85;;;;;;;22.71;28.22;100146.41;20632023;28;20614;-79
2023/07/22 13:50:30;;;;;;;3.92;1.88;;;;;;;22.41;28.54;100132.59;20586639;28;20260;-80
2023/07/22 14:00:34;;;;;;;1.90;1.77;;;;;;;22.19;28.49;100147.38;20611877;28;20332;-79
2023/07/22 14:10:37;;;;;;;4.32;1.98;;;;;;;22.36;29.03;100137.88;20580691;28;20258;-80
2023/07/22 14:20:40;;;;;;;6.00;2.40;;;;;;;22.67;28.24;100114.03;20583897;28;20202;-80
2023/07/22 14:30:42;;;;;;;4.05;1.83;;;;;;;22.95;27.17;100106.50;20601986;28;20276;-79
2023/07/22 14:40:48;;;;;;;2.42;1.90;;;;;;;22.67;28.30;100107.50;20591975;28;20268;-81
2023/07/22 14:50:52;;;;;;;3.05;1.60;;;;;;;22.75;27.80;100092.69;20610311;28;20226;-81
2023/07/22 15:00:54;;;;;;;2.65;1.77;;;;;;;23.37;26.18;100083.28;20634924;28;20244;-81
2023/07/22 15:10:57;;;;;;;3.85;1.73;;;;;;;22.94;26.87;100084.78;20625621;28;20537;-80
2023/07/22 15:21:00;;;;;;;2.83;1.80;;;;;;;22.36;25.77;100089.97;20618196;28;20244;-78
2023/07/22 15:31:04;;;;;;;5.00;2.03;;;;;;;22.65;26.72;100079.22;20573216;28;20290;-82
2023/07/22 15:41:07;;;;;;;4.75;2.08;;;;;;;23.08;26.79;100053.16;20616184;28;20194;-81
2023/07/22 16:02:52;;;;;;;3.28;2.40;;;;;;;22.61;27.39;100058.34;20622940;28;20186;-81
2023/07/22 16:12:57;;;;;;;13.40;8.63;;;;;;;22.30;27.71;100050.69;20601789;28;20222;-81
2023/07/22 16:23:00;;;;;;;3.50;2.78;;;;;;;22.80;27.85;100052.09;20591437;28;20249;-81
2023/07/22 16:33:02;;;;;;;3.10;2.40;;;;;;;22.56;27.61;100053.06;20613765;28;20291;-79
2023/07/22 16:43:05;;;;;;;4.65;2.17;;;;;;;22.38;27.40;100055.19;20625175;28;20206;-80
2023/07/22 16:53:08;;;;;;;5.75;1.55;;;;;;;22.18;28.89;100059.75;20625010;28;20253;-82
2023/07/22 17:03:10;;;;;;;4.13;1.80;;;;;;;23.17;27.79;100050.63;20619568;28;20226;-79
2023/07/22 17:13:13;;;;;;;5.22;1.60;;;;;;;22.09;29.27;100054.44;20611134;28;20218;-79
2023/07/22 17:23:20;;;;;;;1.63;0.90;;;;;;;21.75;29.33;100042.66;20639190;28;20229;-78
2023/07/22 17:33:25;;;;;;;1.42;1.05;;;;;;;21.70;30.30;100037.34;20615730;28;20255;-80
2023/07/22 17:43:27;;;;;;;3.70;2.35;;;;;;;21.82;30.55;100034.09;20579443;28;20217;-81
2023/07/22 17:53:31;;;;;;;5.88;1.80;;;;;;;21.65;30.03;100029.19;20598198;28;20233;-79
2023/07/22 18:03:36;;;;;;;2.13;1.75;;;;;;;21.87;29.99;100030.78;20635017;28;20253;-80
2023/07/22 18:13:39;;;;;;;3.22;2.20;;;;;;;21.48;30.04;100032.88;20597058;28;20222;-79
2023/07/22 18:23:41;;;;;;;3.95;2.05;;;;;;;21.58;30.06;100029.19;20632927;28;20197;-80
2023/07/22 18:33:44;;;;;;;9.05;4.13;;;;;;;21.87;30.26;100042.25;20641734;28;20222;-80
2023/07/22 18:43:47;;;;;;;6.10;2.50;;;;;;;21.67;30.73;100036.13;20652477;28;20656;-80
2023/07/22 18:53:49;;;;;;;6.57;2.40;;;;;;;21.11;31.26;100045.53;20637834;28;20288;-80
2023/07/22 19:03:52;;;;;;;4.75;3.10;;;;;;;21.78;31.19;100039.81;20615432;28;20265;-79
2023/07/22 19:13:58;;;;;;;3.47;2.10;;;;;;;20.46;32.47;100045.81;20586987;28;20249;-81
2023/07/22 19:24:01;;;;;;;2.38;1.60;;;;;;;20.31;33.83;100059.22;20600651;28;20206;-82
2023/07/22 19:34:04;;;;;;;3.97;1.45;;;;;;;21.26;31.73;100052.94;20616431;28;20253;-79
2023/07/22 19:44:07;;;;;;;6.95;1.75;;;;;;;20.83;32.32;100056.94;20580660;28;20314;-79
2023/07/22 19:54:11;;;;;;;2.58;1.38;;;;;;;21.04;31.79;100065.59;20593195;28;20273;-81
2023/07/22 20:04:14;;;;;;;5.60;1.77;;;;;;;20.76;31.92;100062.69;20591921;28;20233;-79
2023/07/22 20:14:17;;;;;;;4.45;1.98;;;;;;;21.26;32.08;100069.28;20593984;28;20253;-81
2023/07/22 20:24:19;;;;;;;3.95;1.75;;;;;;;20.91;33.08;100073.75;20568423;28;20221;-80
2023/07/22 20:34:22;;;;;;;5.28;2.22;;;;;;;20.88;34.01;100073.72;20590501;28;20276;-80
2023/07/22 20:44:25;;;;;;;5.47;1.80;;;;;;;20.78;35.86;100080.25;20600846;28;20222;-82
2023/07/22 20:54:28;;;;;;;2.13;1.42;;;;;;;20.04;37.01;100087.25;20596067;28;20234;-81
2023/07/22 21:04:31;;;;;;;3.42;1.85;;;;;;;19.49;38.56;100092.16;20621142;28;20788;-82
2023/07/22 21:14:34;;;;;;;4.57;2.25;;;;;;;19.67;41.02;100088.22;20604678;28;20290;-82
2023/07/22 21:24:37;;;;;;;4.63;1.90;;;;;;;19.49;40.70;100081.56;20597822;28;20299;-81
2023/07/22 21:34:39;;;;;;;3.45;2.08;;;;;;;19.29;45.22;100072.44;20573153;28;20732;-83
2023/07/22 21:44:45;;;;;;;3.53;1.98;;;;;;;19.33;45.00;100079.00;20597454;28;20198;-77
2023/07/22 21:54:47;;;;;;;4.70;2.42;;;;;;;19.15;45.22;100069.44;20604826;28;20933;-77
2023/07/22 22:04:50;;;;;;;4.45;2.20;;;;;;;19.25;47.28;100059.31;20579951;28;20198;-77
2023/07/22 22:14:54;;;;;;;2.05;1.80;;;;;;;19.03;47.54;100046.91;20566134;28;20249;-77
2023/07/22 22:24:57;;;;;;;4.57;2.25;;;;;;;18.32;51.49;100046.13;20609798;28;20225;-77
2023/07/22 22:35:00;;;;;;;4.68;2.40;;;;;;;18.80;49.25;100049.16;20611827;28;20249;-79
2023/07/22 22:45:03;;;;;;;6.78;2.67;;;;;;;18.33;51.51;100050.63;20574929;28;20202;-79
2023/07/22 22:55:06;;;;;;;5.43;2.92;;;;;;;18.06;55.50;100043.34;20611116;28;20257;-77
2023/07/22 23:05:08;;;;;;;3.58;2.50;;;;;;;18.40;51.70;100022.22;20582464;28;20325;-79
2023/07/22 23:15:11;;;;;;;7.88;2.75;;;;;;;17.48;56.59;100013.28;20616708;28;20225;-81
2023/07/22 23:25:14;;;;;;;4.57;2.92;;;;;;;18.54;52.31;100008.13;20615019;28;20205;-78
2023/07/22 23:35:17;;;;;;;5.97;2.80;;;;;;;18.04;53.71;100012.44;20615696;28;20218;-77
2023/07/22 23:45:20;;;;;;;5.47;2.65;;;;;;;17.85;54.77;100015.41;20625500;28;20464;-81
2023/07/22 23:55:23;;;;;;;4.18;3.20;;;;;;;17.82;56.00;99999.09;20607137;28;20261;-80
